Time;durP1;ratioP1;P1;durP2;ratioP2;P2;SDS_P1;SDS_P2;PMS_P1;PMS_P2;Temp;Humidity;BMP_temperature;BMP_pressure;BME280_temperature;BME280_humidity;BME280_pressure;Samples;Min_cycle;Max_cycle;Signal;HPM_P1;HPM_P2
2022/06/24 00:01:16;;;;;;;;;8.25;5.00;;;;;24.25;51.62;100561.53;6275104;22;64876;-90
2022/06/24 00:03:45;;;;;;;;;7.50;5.75;;;;;23.91;53.36;100537.13;6244972;22;45541;-90
2022/06/24 00:06:18;;;;;;;;;6.50;6.50;;;;;23.61;54.32;100525.53;6245756;22;47806;-85
2022/06/24 00:08:50;;;;;;;;;8.25;6.50;;;;;23.35;55.68;100530.44;6272933;22;45374;-85
2022/06/24 00:11:15;;;;;;;;;5.00;5.00;;;;;23.15;59.92;100537.44;6270913;22;45340;-86
2022/06/24 00:13:41;;;;;;;;;9.00;6.00;;;;;22.86;58.87;100550.50;6273244;22;45413;-85
2022/06/24 00:16:06;;;;;;;;;5.00;5.00;;;;;22.58;60.15;100545.69;6272598;22;45952;-85
2022/06/24 00:18:31;;;;;;;;;9.00;6.75;;;;;22.47;60.62;100552.81;6245497;22;61676;-84
2022/06/24 00:20:57;;;;;;;;;8.50;6.00;;;;;22.44;61.15;100542.50;6273677;22;57324;-86
2022/06/24 00:23:23;;;;;;;;;7.50;5.50;;;;;22.42;61.72;100546.09;6273752;22;53687;-85
2022/06/24 00:25:49;;;;;;;;;9.00;7.00;;;;;22.41;61.76;100540.91;6245939;22;69368;-83
2022/06/24 00:28:15;;;;;;;;;9.75;8.50;;;;;22.38;62.17;100536.72;6274447;22;45294;-83
2022/06/24 00:30:42;;;;;;;;;9.00;7.50;;;;;22.35;63.79;100544.91;6274253;22;45247;-84
2022/06/24 00:33:10;;;;;;;;;10.00;8.75;;;;;22.30;63.54;100530.34;6273832;22;45316;-84
2022/06/24 00:35:38;;;;;;;;;8.00;8.00;;;;;22.28;65.89;100535.75;6246665;22;46184;-84
2022/06/24 00:38:20;;;;;;;;;10.50;7.75;;;;;22.22;64.82;100539.72;6221026;22;45596;-84
2022/06/24 00:40:47;;;;;;;;;7.00;7.00;;;;;22.17;65.56;100536.59;6274669;22;45356;-84
2022/06/24 00:43:19;;;;;;;;;7.75;6.75;;;;;22.17;65.86;100546.38;6273985;22;45406;-83
2022/06/24 00:45:48;;;;;;;;;10.25;7.50;;;;;22.14;66.50;100541.31;6246186;22;45592;-84
2022/06/24 00:48:14;;;;;;;;;8.75;8.50;;;;;22.11;65.43;100553.00;6247078;22;45322;-84
2022/06/24 00:50:44;;;;;;;;;8.00;6.00;;;;;22.13;65.85;100552.88;6247015;22;45232;-84
2022/06/24 00:53:09;;;;;;;;;7.25;6.25;;;;;22.14;66.83;100547.47;6247141;22;45429;-84
2022/06/24 00:55:36;;;;;;;;;8.50;6.75;;;;;22.16;66.85;100544.69;6245207;22;72090;-84
2022/06/24 00:58:02;;;;;;;;;10.25;8.50;;;;;22.15;67.16;100543.84;6246327;22;45558;-84
2022/06/24 01:00:30;;;;;;;;;5.25;4.75;;;;;22.10;65.08;100542.53;6271733;22;45259;-84
2022/06/24 01:03:03;;;;;;;;;5.50;4.75;;;;;21.93;62.76;100536.75;6247164;22;45458;-84
2022/06/24 01:05:30;;;;;;;;;7.75;7.00;;;;;21.83;64.02;100539.31;6247045;22;45356;-84
2022/06/24 01:07:56;;;;;;;;;5.00;5.00;;;;;21.77;64.72;100538.97;6246853;22;45737;-83
2022/06/24 01:10:21;;;;;;;;;4.50;4.00;;;;;21.71;63.92;100532.34;6246458;22;45330;-84
2022/06/24 01:12:47;;;;;;;;;8.00;5.25;;;;;21.65;64.09;100536.31;6273761;22;45406;-83
2022/06/24 01:15:12;;;;;;;;;6.00;6.00;;;;;21.61;64.39;100532.22;6272335;22;69273;-84
2022/06/24 01:17:38;;;;;;;;;5.50;5.25;;;;;21.55;63.88;100530.06;6246618;22;45322;-84
2022/06/24 01:20:05;;;;;;;;;5.00;5.00;;;;;21.52;62.99;100532.94;6274135;22;45290;-84
2022/06/24 01:22:32;;;;;;;;;5.00;4.50;;;;;21.46;62.62;100525.47;6246383;22;45555;-85
2022/06/24 01:24:57;;;;;;;;;5.00;4.50;;;;;21.41;63.48;100523.19;6246297;22;46728;-84
2022/06/24 01:27:22;;;;;;;;;6.00;4.00;;;;;21.38;62.32;100520.75;6246224;22;45275;-84
2022/06/24 01:29:49;;;;;;;;;7.75;5.75;;;;;21.35;62.66;100522.81;6272440;22;56615;-84
2022/06/24 01:32:14;;;;;;;;;4.00;4.00;;;;;21.34;62.70;100513.16;6220920;22;45414;-84
2022/06/24 01:34:39;;;;;;;;;5.00;5.00;;;;;21.30;64.07;100517.84;6246751;22;46232;-84
2022/06/24 01:37:05;;;;;;;;;7.75;5.50;;;;;21.24;64.65;100516.50;6272597;22;70534;-84
2022/06/24 01:39:30;;;;;;;;;6.50;5.75;;;;;21.21;64.09;100513.25;6273032;22;50813;-84
2022/06/24 01:41:56;;;;;;;;;5.50;5.00;;;;;21.21;64.91;100510.63;6273449;22;45472;-84
2022/06/24 01:44:22;;;;;;;;;4.75;4.75;;;;;21.13;62.94;100516.50;6273482;22;46352;-84
2022/06/24 01:46:48;;;;;;;;;5.00;5.00;;;;;21.07;64.47;100525.75;6272878;22;69227;-84
2022/06/24 01:49:13;;;;;;;;;3.50;3.50;;;;;21.02;64.22;100549.09;6273574;22;45369;-84
2022/06/24 01:51:41;;;;;;;;;3.75;3.75;;;;;20.94;64.88;100577.09;6273868;22;45363;-84
2022/06/24 01:54:06;;;;;;;;;9.75;6.75;;;;;20.85;65.94;100582.09;6246436;22;46114;-84
2022/06/24 01:56:32;;;;;;;;;13.75;10.75;;;;;20.63;69.61;100577.56;6275149;22;45326;-87
2022/06/24 02:00:03;;;;;;;;;;;;;;;;;;;;;
2022/06/24 02:02:29;;;;;;;;;9.50;7.25;;;;;19.82;73.07;100576.31;6270904;22;70514;-88
2022/06/24 02:04:54;;;;;;;;;6.75;4.00;;;;;19.65;72.63;100579.22;6241466;22;54650;-87
2022/06/24 02:07:21;;;;;;;;;10.00;7.00;;;;;19.49;73.71;100576.81;6240886;22;45558;-86
2022/06/24 02:15:14;;;;;;;;;7.00;5.50;;;;;19.19;74.04;100554.22;6242837;22;45664;-86
2022/06/24 02:17:40;;;;;;;;;8.50;7.00;;;;;19.15;74.97;100550.13;6239904;22;61731;-85
2022/06/24 02:20:05;;;;;;;;;9.00;7.00;;;;;19.08;74.21;100539.13;6241291;22;45320;-86
2022/06/24 02:22:31;;;;;;;;;7.50;6.00;;;;;19.04;74.71;100542.91;6240863;22;45324;-84
2022/06/24 02:24:56;;;;;;;;;9.75;9.00;;;;;19.04;75.61;100542.91;6242436;22;52489;-84
2022/06/24 02:27:22;;;;;;;;;8.50;6.50;;;;;19.03;75.14;100535.09;6242349;22;45223;-84
2022/06/24 02:29:47;;;;;;;;;9.00;7.00;;;;;19.00;75.90;100543.22;6241740;22;65922;-84
2022/06/24 02:32:12;;;;;;;;;7.50;7.50;;;;;19.00;76.23;100546.72;6242183;22;60436;-84
2022/06/24 02:34:38;;;;;;;;;9.25;7.00;;;;;19.04;76.03;100544.72;6241460;22;72671;-84
2022/06/24 02:37:03;;;;;;;;;10.00;6.50;;;;;19.09;76.69;100555.78;6241357;22;64780;-87
2022/06/24 02:39:29;;;;;;;;;8.25;8.00;;;;;19.07;76.48;100555.88;6240992;22;45255;-87
2022/06/24 02:41:54;;;;;;;;;7.25;6.50;;;;;19.07;75.88;100544.50;6240404;22;45201;-85
2022/06/24 02:44:19;;;;;;;;;7.25;7.25;;;;;19.06;74.84;100527.00;6241528;22;60184;-86
2022/06/24 02:46:44;;;;;;;;;8.25;8.00;;;;;19.09;75.88;100511.81;6241643;22;59904;-87
2022/06/24 02:49:10;;;;;;;;;8.00;8.00;;;;;19.18;74.95;100517.38;6240897;22;45276;-87
2022/06/24 02:51:35;;;;;;;;;7.00;5.75;;;;;19.24;75.90;100517.81;6240873;22;45292;-86
2022/06/24 02:54:01;;;;;;;;;10.00;7.00;;;;;19.28;75.75;100521.09;6239887;22;68835;-85
2022/06/24 02:56:26;;;;;;;;;7.75;7.00;;;;;19.28;75.70;100521.94;6240721;22;65810;-85
2022/06/24 02:58:52;;;;;;;;;6.25;6.00;;;;;19.27;75.54;100514.13;6241401;22;45258;-85
2022/06/24 03:01:18;;;;;;;;;7.00;6.00;;;;;19.22;75.07;100522.34;6242412;22;45421;-85
2022/06/24 03:03:43;;;;;;;;;7.00;7.00;;;;;19.23;75.75;100516.13;6242628;22;68438;-85
2022/06/24 03:06:09;;;;;;;;;8.00;7.50;;;;;19.24;75.49;100515.19;6272583;22;49157;-85
2022/06/24 03:08:35;;;;;;;;;5.25;5.25;;;;;19.24;75.45;100509.91;6244991;22;59355;-85
2022/06/24 03:11:01;;;;;;;;;7.00;7.00;;;;;19.26;75.75;100513.28;6272729;22;45273;-85
2022/06/24 03:13:28;;;;;;;;;7.00;6.50;;;;;19.30;76.12;100516.56;6245882;22;46092;-84
2022/06/24 03:15:53;;;;;;;;;8.50;7.25;;;;;19.35;76.10;100517.06;6273298;22;45286;-84
2022/06/24 03:18:19;;;;;;;;;8.25;7.00;;;;;19.39;75.87;100517.69;6273413;22;45286;-83
2022/06/24 03:20:45;;;;;;;;;6.00;6.00;;;;;19.37;75.78;100515.19;6273328;22;45445;-84
2022/06/24 03:23:10;;;;;;;;;4.75;4.75;;;;;19.37;74.67;100506.41;6273214;22;46346;-84
2022/06/24 03:25:36;;;;;;;;;4.75;4.75;;;;;19.36;76.04;100508.22;6245326;22;50440;-85
2022/06/24 03:28:04;;;;;;;;;7.25;7.25;;;;;19.39;76.04;100513.28;6220050;22;45298;-84
2022/06/24 03:30:29;;;;;;;;;8.75;5.00;;;;;19.44;76.08;100505.88;6272792;22;45470;-83
2022/06/24 03:32:54;;;;;;;;;4.75;4.75;;;;;19.42;75.15;100512.22;6272627;22;46274;-84
2022/06/24 03:35:20;;;;;;;;;4.75;4.00;;;;;19.39;75.70;100509.78;6244422;22;64476;-85
2022/06/24 03:37:45;;;;;;;;;7.25;7.25;;;;;19.38;75.79;100508.94;6219075;22;61366;-84
2022/06/24 03:40:11;;;;;;;;;5.00;5.00;;;;;19.42;76.42;100510.41;6219482;22;45376;-84
2022/06/24 03:42:36;;;;;;;;;8.25;6.50;;;;;19.43;75.33;100513.91;6271558;22;64908;-84
2022/06/24 03:45:02;;;;;;;;;8.25;6.00;;;;;19.41;75.95;100516.66;6244496;22;71413;-84
2022/06/24 03:47:27;;;;;;;;;5.00;5.00;;;;;19.35;75.27;100509.16;6271252;22;45295;-85
2022/06/24 03:49:52;;;;;;;;;5.75;4.75;;;;;19.28;75.54;100516.66;6272522;22;58397;-84
2022/06/24 03:52:18;;;;;;;;;6.75;6.00;;;;;19.22;75.52;100506.50;6271963;22;63522;-84
2022/06/24 03:54:44;;;;;;;;;8.00;6.25;;;;;19.17;75.35;100511.28;6273485;22;45164;-84
2022/06/24 03:57:09;;;;;;;;;5.75;4.00;;;;;19.10;75.37;100508.19;6274024;22;45218;-83
2022/06/24 03:59:35;;;;;;;;;7.00;5.00;;;;;19.03;75.36;100508.72;6246216;22;52491;-84
2022/06/24 04:02:00;;;;;;;;;5.75;5.75;;;;;19.03;75.42;100503.44;6273187;22;57779;-84
2022/06/24 04:04:25;;;;;;;;;9.00;9.00;;;;;19.08;76.32;100504.00;6273741;22;45240;-84
2022/06/24 04:06:51;;;;;;;;;11.00;5.75;;;;;19.07;75.75;100497.00;6274049;22;45230;-83
2022/06/24 04:09:16;;;;;;;;;7.00;5.75;;;;;19.08;75.97;100493.44;6219632;22;65876;-84
2022/06/24 04:11:42;;;;;;;;;4.50;4.50;;;;;19.07;75.49;100500.50;6245619;22;63004;-83
2022/06/24 04:14:07;;;;;;;;;7.00;6.00;;;;;19.04;75.48;100491.97;6272933;22;71865;-84
2022/06/24 04:16:32;;;;;;;;;6.25;6.00;;;;;19.05;76.11;100493.63;6246152;22;63611;-84
2022/06/24 04:18:58;;;;;;;;;7.50;7.00;;;;;19.10;76.92;100497.66;6274298;22;45327;-84
2022/06/24 04:21:23;;;;;;;;;8.50;8.50;;;;;19.15;76.11;100497.34;6273516;22;46388;-84
2022/06/24 04:23:49;;;;;;;;;8.25;7.00;;;;;19.24;76.88;100511.69;6273837;22;45323;-85
2022/06/24 04:26:16;;;;;;;;;6.00;6.00;;;;;19.26;75.97;100513.28;6274061;22;45298;-86
2022/06/24 04:28:41;;;;;;;;;6.00;5.00;;;;;19.28;75.55;100513.19;6247120;22;45412;-83
2022/06/24 04:31:07;;;;;;;;;6.50;5.00;;;;;19.26;75.72;100508.00;6273610;22;46918;-84
2022/06/24 04:33:32;;;;;;;;;6.25;6.25;;;;;19.27;76.66;100514.97;6245968;22;59116;-84
2022/06/24 04:35:57;;;;;;;;;5.75;4.50;;;;;19.25;75.96;100516.03;6246508;22;54657;-84
2022/06/24 04:38:23;;;;;;;;;7.75;5.75;;;;;19.25;75.66;100508.94;6246083;22;50771;-84
2022/06/24 04:40:49;;;;;;;;;8.00;6.00;;;;;19.24;75.43;100511.69;6246709;22;45599;-84
2022/06/24 04:43:14;;;;;;;;;7.00;7.00;;;;;19.23;75.33;100523.22;6274075;22;45266;-84
2022/06/24 04:45:39;;;;;;;;;7.00;5.00;;;;;19.22;75.58;100519.69;6271199;22;66999;-84
2022/06/24 04:48:06;;;;;;;;;8.75;7.00;;;;;19.20;75.49;100511.03;6272867;22;61662;-84
2022/06/24 04:50:31;;;;;;;;;8.00;6.25;;;;;19.24;76.19;100514.31;6273750;22;46645;-84
2022/06/24 04:52:57;;;;;;;;;4.50;4.50;;;;;19.28;75.79;100513.19;6273903;22;45722;-84
2022/06/24 04:55:22;;;;;;;;;8.00;6.00;;;;;19.30;75.23;100514.75;6220639;22;46344;-84
2022/06/24 04:57:48;;;;;;;;;5.00;5.00;;;;;19.32;74.67;100514.66;6273501;22;45370;-84
2022/06/24 05:00:14;;;;;;;;;6.00;6.00;;;;;19.32;74.86;100522.56;6246259;22;46262;-85
2022/06/24 05:02:41;;;;;;;;;7.50;7.50;;;;;19.30;75.00;100519.19;6246145;22;45283;-84
2022/06/24 05:05:07;;;;;;;;;8.00;6.25;;;;;19.27;75.18;100508.84;6246081;22;45474;-84
2022/06/24 05:07:32;;;;;;;;;8.25;7.75;;;;;19.27;75.35;100509.69;6273363;22;45423;-84
2022/06/24 05:09:58;;;;;;;;;8.00;7.00;;;;;19.28;75.06;100513.19;6271010;22;65444;-84
2022/06/24 05:12:23;;;;;;;;;5.00;5.00;;;;;19.28;74.59;100515.81;6220587;22;45291;-85
2022/06/24 05:14:48;;;;;;;;;8.75;6.00;;;;;19.26;75.12;100518.56;6245467;22;61700;-84
2022/06/24 05:17:14;;;;;;;;;6.75;6.75;;;;;19.26;75.09;100515.06;6245857;22;56129;-84
2022/06/24 05:19:39;;;;;;;;;6.00;6.00;;;;;19.23;75.28;100508.22;6273852;22;45365;-84
2022/06/24 05:22:05;;;;;;;;;7.75;4.50;;;;;19.22;75.22;100521.50;6272270;22;69413;-84
2022/06/24 05:24:30;;;;;;;;;10.50;8.00;;;;;19.20;75.34;100520.75;6246121;22;45212;-85
2022/06/24 05:26:56;;;;;;;;;7.25;6.00;;;;;19.15;74.92;100514.00;6246378;22;45117;-84
2022/06/24 05:29:21;;;;;;;;;9.50;7.75;;;;;19.15;75.06;100527.22;6246554;22;46222;-84
2022/06/24 05:31:47;;;;;;;;;7.75;7.00;;;;;19.23;74.84;100528.47;6274020;22;45236;-84
2022/06/24 05:34:13;;;;;;;;;7.25;6.00;;;;;19.29;74.54;100517.50;6273998;22;45228;-84
2022/06/24 05:36:38;;;;;;;;;4.75;3.75;;;;;19.36;75.16;100521.41;6246297;22;45386;-85
2022/06/24 05:39:05;;;;;;;;;7.00;5.75;;;;;19.45;74.46;100518.13;6246169;22;45693;-87
2022/06/24 05:41:31;;;;;;;;;10.50;7.50;;;;;19.50;73.77;100509.88;6273804;22;45309;-86
2022/06/24 05:43:57;;;;;;;;;7.50;6.00;;;;;19.55;73.68;100515.69;6247108;22;45299;-85
2022/06/24 05:46:22;;;;;;;;;9.00;7.00;;;;;19.55;73.95;100518.31;6247108;22;45292;-86
2022/06/24 05:48:47;;;;;;;;;6.00;6.00;;;;;19.58;73.32;100530.47;6274275;22;51557;-85
2022/06/24 05:51:15;;;;;;;;;8.25;7.00;;;;;19.62;73.23;100529.31;6246253;22;64833;-85
2022/06/24 05:56:26;;;;;;;;;6.50;4.50;;;;;19.70;72.29;100529.59;6274236;22;45254;-87
2022/06/24 05:58:52;;;;;;;;;8.75;6.75;;;;;19.68;72.24;100534.16;6273492;22;46805;-88
2022/06/24 06:01:20;;;;;;;;;7.50;6.00;;;;;19.70;73.28;100533.06;6246838;22;45269;-88
2022/06/24 06:04:15;;;;;;;;;;;;;;;;;;;;;
2022/06/24 06:06:41;;;;;;;;;8.00;5.25;;;;;19.77;72.19;100540.63;6269815;22;70045;-88
2022/06/24 06:09:06;;;;;;;;;7.00;6.25;;;;;19.77;72.01;100546.72;6246674;22;48627;-87
2022/06/24 06:11:32;;;;;;;;;6.00;5.75;;;;;19.72;71.38;100546.16;6246387;22;45350;-88
2022/06/24 06:14:00;;;;;;;;;6.25;6.00;;;;;19.70;71.56;100545.44;6248322;22;45319;-90
2022/06/24 06:16:27;;;;;;;;;5.00;4.00;;;;;19.68;71.82;100542.06;6247905;22;45302;-88
2022/06/24 06:18:55;;;;;;;;;8.50;6.00;;;;;19.70;71.69;100548.06;6247447;22;46146;-88
2022/06/24 06:21:26;;;;;;;;;8.50;7.00;;;;;19.73;70.38;100542.63;6247765;22;45294;-90
2022/06/24 06:24:11;;;;;;;;;7.25;6.00;;;;;19.72;71.30;100544.44;6248538;22;45350;-90
2022/06/24 06:26:40;;;;;;;;;5.25;5.00;;;;;19.79;71.21;100538.72;6273702;22;45195;-89
2022/06/24 06:29:05;;;;;;;;;7.00;7.00;;;;;19.84;71.52;100550.63;6247407;22;46306;-89
2022/06/24 06:31:31;;;;;;;;;5.50;5.00;;;;;19.90;71.19;100544.91;6222059;22;45254;-89
2022/06/24 06:34:12;;;;;;;;;6.25;5.25;;;;;19.95;70.91;100541.09;6221868;22;45298;-89
2022/06/24 06:36:37;;;;;;;;;3.00;3.00;;;;;19.97;70.84;100549.78;6248803;22;45502;-90
2022/06/24 06:39:11;;;;;;;;;5.75;5.00;;;;;19.99;69.85;100551.34;6248981;22;48115;-90
2022/06/24 06:41:37;;;;;;;;;4.25;4.25;;;;;20.02;69.22;100552.91;6249429;22;45622;-88
2022/06/24 06:44:09;;;;;;;;;8.50;5.00;;;;;20.08;69.53;100550.69;6248391;22;45288;-90
2022/06/24 06:46:35;;;;;;;;;4.75;4.25;;;;;20.22;69.27;100544.38;6221701;22;45494;-90
2022/06/24 06:49:20;;;;;;;;;7.00;5.00;;;;;20.33;68.45;100540.97;6247012;22;46382;-91
2022/06/24 06:51:46;;;;;;;;;5.00;5.00;;;;;20.37;68.15;100545.06;6261135;22;45638;-88
2022/06/24 06:54:14;;;;;;;;;7.00;4.75;;;;;20.41;68.41;100543.91;6272416;22;45464;-89
2022/06/24 06:59:55;;;;;;;;;7.00;6.00;;;;;20.54;67.16;100551.78;6247881;22;46618;-89
2022/06/24 07:02:21;;;;;;;;;5.00;5.00;;;;;20.55;66.96;100547.34;6247343;22;45329;-86
2022/06/24 07:04:46;;;;;;;;;4.50;4.50;;;;;20.62;66.22;100552.09;6240206;22;45329;-86
2022/06/24 07:07:11;;;;;;;;;4.00;3.50;;;;;20.71;66.82;100549.69;6242176;22;58628;-86
2022/06/24 07:09:37;;;;;;;;;6.00;6.00;;;;;20.80;66.90;100549.00;6214628;22;70767;-85
2022/06/24 07:12:02;;;;;;;;;5.75;5.00;;;;;20.89;65.17;100550.97;6240807;22;65293;-85
2022/06/24 07:14:28;;;;;;;;;5.00;5.00;;;;;20.96;65.47;100549.53;6238841;22;45394;-85
2022/06/24 07:16:53;;;;;;;;;6.00;5.25;;;;;21.05;66.11;100550.66;6211634;22;64836;-85
2022/06/24 07:19:18;;;;;;;;;6.25;5.00;;;;;21.16;64.41;100549.84;6213259;22;46998;-85
2022/06/24 07:21:44;;;;;;;;;5.00;4.00;;;;;21.26;64.55;100540.22;6213215;22;73867;-85
2022/06/24 07:24:09;;;;;;;;;5.00;5.00;;;;;21.31;64.42;100540.72;6240401;22;45268;-85
2022/06/24 07:26:34;;;;;;;;;7.00;5.00;;;;;21.39;63.36;100540.97;6241856;22;49806;-85
2022/06/24 07:29:00;;;;;;;;;5.00;4.00;;;;;21.40;62.54;100544.47;6243697;22;46003;-85
2022/06/24 07:31:25;;;;;;;;;6.50;4.50;;;;;21.37;62.83;100532.28;6242068;22;60194;-84
2022/06/24 07:33:50;;;;;;;;;4.75;4.00;;;;;21.42;63.24;100530.13;6242494;22;45354;-85
2022/06/24 07:36:18;;;;;;;;;7.75;4.50;;;;;21.48;62.93;100528.03;6243652;22;45351;-86
2022/06/24 07:38:43;;;;;;;;;6.00;6.00;;;;;21.52;63.01;100530.28;6242090;22;45307;-87
2022/06/24 07:41:09;;;;;;;;;6.00;5.50;;;;;21.52;62.87;100525.00;6214576;22;64516;-92
2022/06/24 07:43:44;;;;;;;;;5.25;4.00;;;;;21.60;62.99;100524.38;6216296;22;45307;-88
2022/06/24 07:46:11;;;;;;;;;5.00;5.00;;;;;21.70;62.53;100525.34;6243630;22;45310;-90
2022/06/24 07:48:36;;;;;;;;;4.00;4.00;;;;;21.77;62.25;100525.72;6216956;22;45330;-88
2022/06/24 07:51:09;;;;;;;;;6.25;5.00;;;;;21.74;62.60;100524.16;6215788;22;45276;-87
2022/06/24 07:53:35;;;;;;;;;5.75;5.00;;;;;21.75;62.59;100524.97;6216748;22;45326;-87
2022/06/24 07:58:44;;;;;;;;;8.00;6.00;;;;;21.78;62.38;100536.19;6243993;22;45789;-92
2022/06/24 08:01:10;;;;;;;;;6.00;5.00;;;;;21.80;62.33;100534.28;6215382;22;45345;-85
2022/06/24 08:03:37;;;;;;;;;4.00;4.00;;;;;21.84;61.30;100534.84;6242177;22;45279;-87
2022/06/24 08:06:03;;;;;;;;;5.00;5.00;;;;;21.90;60.71;100536.16;6273495;22;45333;-85
2022/06/24 08:08:28;;;;;;;;;4.00;4.00;;;;;22.02;61.46;100528.06;6244283;22;45641;-85
2022/06/24 08:10:53;;;;;;;;;5.25;5.25;;;;;22.23;60.33;100528.16;6246392;22;45439;-88
2022/06/24 08:13:21;;;;;;;;;7.00;5.00;;;;;22.45;61.42;100529.06;6246302;22;45669;-86
2022/06/24 08:15:49;;;;;;;;;6.00;5.75;;;;;22.63;61.37;100525.88;6245971;22;45287;-86
2022/06/24 08:18:22;;;;;;;;;5.00;5.00;;;;;22.72;59.25;100525.13;6273094;22;66999;-86
2022/06/24 08:20:49;;;;;;;;;7.00;6.00;;;;;22.73;57.41;100525.00;6248962;22;45583;-87
2022/06/24 08:23:17;;;;;;;;;7.00;4.00;;;;;22.63;57.23;100524.06;6248318;22;45404;-86
2022/06/24 08:25:45;;;;;;;;;8.25;6.00;;;;;22.56;57.77;100525.53;6247666;22;45379;-86
2022/06/24 08:28:10;;;;;;;;;6.00;5.00;;;;;22.51;57.73;100535.69;6220679;22;62496;-86
2022/06/24 08:30:36;;;;;;;;;4.50;4.50;;;;;22.52;57.65;100540.88;6246386;22;57123;-87
2022/06/24 08:33:07;;;;;;;;;7.00;6.00;;;;;22.58;55.47;100545.69;6246746;22;53312;-89
2022/06/24 08:35:33;;;;;;;;;3.25;3.25;;;;;22.63;55.68;100537.34;6248585;22;45321;-87
2022/06/24 08:37:58;;;;;;;;;5.25;4.50;;;;;22.66;55.19;100534.44;6220844;22;66095;-86
2022/06/24 08:40:27;;;;;;;;;3.25;3.25;;;;;22.70;54.42;100535.03;6248390;22;45343;-88
2022/06/24 08:42:58;;;;;;;;;3.00;3.00;;;;;22.67;54.55;100529.97;6248362;22;45236;-88
2022/06/24 08:45:25;;;;;;;;;4.00;3.00;;;;;22.68;53.73;100531.63;6247107;22;45180;-87
2022/06/24 08:47:50;;;;;;;;;4.00;3.00;;;;;22.75;53.33;100531.00;6247298;22;47590;-86
2022/06/24 08:50:17;;;;;;;;;4.00;4.00;;;;;22.92;53.69;100524.28;6246584;22;45329;-87
2022/06/24 08:52:48;;;;;;;;;2.00;2.00;;;;;23.13;52.04;100524.31;6247031;22;45297;-87
2022/06/24 08:55:19;;;;;;;;;3.00;3.00;;;;;23.27;52.01;100525.78;6246703;22;45802;-86
2022/06/24 08:57:48;;;;;;;;;2.25;2.25;;;;;23.34;51.89;100520.78;6221184;22;46969;-86
2022/06/24 09:00:14;;;;;;;;;3.75;2.75;;;;;23.47;51.79;100525.88;6272869;22;61163;-89
2022/06/24 09:02:41;;;;;;;;;4.00;2.00;;;;;23.48;51.42;100514.28;6246784;22;45438;-86
2022/06/24 09:05:13;;;;;;;;;7.25;3.00;;;;;23.45;51.57;100507.41;6246861;22;45216;-88
2022/06/24 09:07:39;;;;;;;;;3.50;2.75;;;;;23.38;51.59;100511.56;6274194;22;46123;-88
2022/06/24 09:10:06;;;;;;;;;2.00;1.50;;;;;23.35;53.13;100511.84;6245676;22;45979;-86
2022/06/24 09:12:42;;;;;;;;;3.25;2.75;;;;;23.31;51.79;100505.97;6273475;22;45284;-88
2022/06/24 09:15:09;;;;;;;;;2.75;2.50;;;;;23.32;52.96;100504.13;6221078;22;45258;-86
2022/06/24 09:17:36;;;;;;;;;2.25;2.00;;;;;23.40;50.76;100496.34;6247122;22;45417;-88
2022/06/24 09:20:21;;;;;;;;;4.25;3.00;;;;;23.51;51.45;100490.94;6246516;22;45290;-88
2022/06/24 09:22:47;;;;;;;;;2.25;1.75;;;;;23.62;50.21;100491.81;6247577;22;45326;-88
2022/06/24 09:25:12;;;;;;;;;2.00;2.00;;;;;23.68;48.47;100494.78;6221437;22;45577;-89
2022/06/24 09:27:45;;;;;;;;;2.25;2.00;;;;;23.63;49.17;100485.53;6246526;22;47971;-88
2022/06/24 09:30:12;;;;;;;;;2.25;2.25;;;;;23.58;49.62;100481.44;6246673;22;45411;-87
2022/06/24 09:32:55;;;;;;;;;4.25;1.50;;;;;23.38;50.35;100472.59;6273682;22;45294;-89
2022/06/24 09:35:24;;;;;;;;;2.00;2.00;;;;;23.19;50.81;100483.09;6246325;22;58040;-88
2022/06/24 09:37:51;;;;;;;;;3.50;2.00;;;;;23.10;51.04;100484.72;6273571;22;45502;-87
2022/06/24 09:40:27;;;;;;;;;1.75;1.75;;;;;23.04;50.72;100479.97;6246385;22;45294;-88
2022/06/24 09:42:57;;;;;;;;;3.25;1.50;;;;;22.98;51.18;100469.84;6273800;22;45237;-88
2022/06/24 09:45:23;;;;;;;;;2.75;2.25;;;;;23.06;51.57;100466.56;6246849;22;45334;-88
2022/06/24 09:47:50;;;;;;;;;2.25;0.00;;;;;23.17;50.66;100456.69;6247710;22;45409;-88
2022/06/24 09:50:17;;;;;;;;;6.00;2.25;;;;;23.29;50.74;100461.91;6273961;22;45614;-89
2022/06/24 09:52:43;;;;;;;;;2.00;2.00;;;;;23.29;50.34;100459.25;6274682;22;45324;-88
2022/06/24 09:55:10;;;;;;;;;3.75;3.00;;;;;23.33;51.09;100461.53;6274310;22;45337;-88
2022/06/24 09:57:35;;;;;;;;;1.75;1.75;;;;;23.48;50.09;100461.16;6246444;22;46162;-89
2022/06/24 10:02:47;;;;;;;;;2.75;2.75;;;;;23.77;49.90;100462.06;6251156;22;45341;-88
2022/06/24 10:05:15;;;;;;;;;2.00;2.00;;;;;23.76;48.75;100462.22;6246327;22;45315;-87
2022/06/24 10:07:45;;;;;;;;;1.50;1.50;;;;;23.62;48.66;100463.41;6221008;22;47050;-88
2022/06/24 10:10:11;;;;;;;;;1.00;1.00;;;;;23.56;48.81;100456.84;6246857;22;45394;-89
2022/06/24 10:12:40;;;;;;;;;3.25;2.25;;;;;23.55;49.05;100464.94;6246192;22;45341;-90
2022/06/24 10:15:06;;;;;;;;;4.00;1.50;;;;;23.57;49.89;100458.53;6246560;22;45636;-88
2022/06/24 10:17:34;;;;;;;;;1.25;1.00;;;;;23.74;48.86;100454.38;6246439;22;46140;-86
2022/06/24 10:20:01;;;;;;;;;1.75;1.75;;;;;23.94;48.20;100457.94;6245954;22;45434;-91
2022/06/24 10:22:51;;;;;;;;;2.25;1.25;;;;;24.13;47.65;100459.78;6246472;22;45230;-90
2022/06/24 10:25:47;;;;;;;;;1.00;1.00;;;;;24.20;47.17;100459.19;6246634;22;45307;-86
2022/06/24 10:28:13;;;;;;;;;2.75;1.00;;;;;24.17;47.57;100456.84;6272675;22;46173;-83
2022/06/24 10:30:41;;;;;;;;;0.75;0.75;;;;;24.13;48.19;100465.09;6244983;22;65942;-86
2022/06/24 10:33:23;;;;;;;;;;;;;;;;;;;;;
2022/06/24 10:36:07;;;;;;;;;1.50;1.50;;;;;24.22;49.05;100459.91;6268252;22;68818;-85
2022/06/24 10:38:38;;;;;;;;;0.50;0.50;;;;;24.29;48.84;100448.59;6245952;22;45349;-85
2022/06/24 10:41:07;;;;;;;;;1.50;1.00;;;;;24.31;47.63;100449.28;6244783;22;45491;-86
2022/06/24 10:43:41;;;;;;;;;2.00;1.00;;;;;24.33;47.48;100452.63;6245271;22;45332;-85
2022/06/24 10:46:13;;;;;;;;;3.00;2.00;;;;;24.32;47.71;100435.00;6245697;22;45471;-84
2022/06/24 10:48:44;;;;;;;;;1.00;1.00;;;;;24.41;47.52;100446.63;6272471;22;46379;-85
2022/06/24 10:51:14;;;;;;;;;1.00;1.00;;;;;24.64;46.84;100438.34;6245301;22;45308;-85
2022/06/24 10:54:06;;;;;;;;;1.00;1.00;;;;;24.88;46.16;100443.19;6245372;22;45408;-88
2022/06/24 10:56:51;;;;;;;;;2.00;1.00;;;;;24.83;45.12;100434.78;6272992;22;45716;-87
2022/06/24 10:59:19;;;;;;;;;2.00;2.00;;;;;24.71;45.95;100442.94;6245786;22;45353;-91
2022/06/24 11:02:00;;;;;;;;;1.25;1.25;;;;;24.52;46.21;100437.69;6246706;22;45253;-89
2022/06/24 11:04:40;;;;;;;;;0.00;0.00;;;;;24.28;46.75;100438.91;6274273;22;45250;-93
2022/06/24 11:10:49;;;;;;;;;1.00;1.00;;;;;23.67;49.93;100453.22;6206067;22;46425;-92
2022/06/24 11:13:21;;;;;;;;;2.00;1.75;;;;;23.45;52.56;100462.25;6210124;22;45743;-93
2022/06/24 11:16:34;;;;;;;;;;;;;;;;;;;;;
2022/06/24 11:19:42;;;;;;;;;;;;;;;;;;;;;
2022/06/24 11:22:23;;;;;;;;;;;;;;;;;;;;;
2022/06/24 11:24:55;;;;;;;;;2.00;2.00;;;;;23.21;57.42;100459.91;6185771;22;73116;-89
2022/06/24 11:27:34;;;;;;;;;2.50;2.50;;;;;23.34;57.06;100454.38;6184878;22;45320;-89
2022/06/24 11:30:00;;;;;;;;;1.50;1.50;;;;;23.59;56.56;100450.44;6183429;22;45351;-88
2022/06/24 11:32:28;;;;;;;;;1.50;1.50;;;;;23.85;55.80;100445.47;6183203;22;46914;-88
2022/06/24 11:34:53;;;;;;;;;1.75;1.75;;;;;24.03;55.10;100442.97;6183376;22;57852;-89
2022/06/24 11:37:35;;;;;;;;;;;;;;;;;;;;;
2022/06/24 11:40:03;;;;;;;;;3.25;2.75;;;;;28.90;43.85;100442.25;6221753;22;71167;-90
2022/06/24 11:42:28;;;;;;;;;2.50;2.50;;;;;31.93;43.94;100433.53;6257007;22;46569;-89
2022/06/24 11:47:48;;;;;;;;;1.75;1.75;;;;;33.46;33.64;100447.28;6250225;22;46441;-90
2022/06/24 11:50:24;;;;;;;;;0.75;0.75;;;;;31.39;34.48;100445.53;6272285;22;45317;-94
2022/06/24 11:52:58;;;;;;;;;2.00;2.00;;;;;29.24;38.39;100451.94;6220106;22;47165;-89
2022/06/24 11:55:31;;;;;;;;;2.25;2.00;;;;;28.55;41.75;100463.94;6245087;22;45513;-87
2022/06/24 11:57:58;;;;;;;;;2.50;2.50;;;;;28.85;41.41;100456.19;6272513;22;45285;-86
2022/06/24 12:00:25;;;;;;;;;4.00;2.25;;;;;28.85;40.45;100455.34;6245762;22;45505;-94
2022/06/24 12:02:52;;;;;;;;;2.00;2.00;;;;;28.44;41.54;100460.72;6220505;22;48203;-90